OBBI/BAH METAR and TAF weather

Enter ICAO airport designator
Station Type Date Time Source
OBBI METAR 2019/05/20 11:00 UTC NOAA

OBBI 201100Z 05007KT 020V090 CAVOK 32/21 Q1008 NOSIG


Station Type Date Time Source
OBBI Decoded METAR 2019/05/20 11:00 UTC NOAA

Bahrain International Airport , Bahrain (OBBI) 26-16N 050-39E 2M
May 20, 2019 - 07:00 AM EDT / 2019.05.20 1100 UTC
Wind: from the NE (050 degrees) at 8 MPH (7 KT) (direction variable):0
Visibility: greater than 7 mile(s):0
Temperature: 89 F (32 C)
Dew Point: 69 F (21 C)
Relative Humidity: 52%
Pressure (altimeter): 29.77 in. Hg (1008 hPa)
ob: OBBI 201100Z 05007KT 020V090 CAVOK 32/21 Q1008 NOSIG
cycle: 11

Station Type Date Time Source
OBBI TAF 2019/05/20 12:34 UTC NOAA

TAF OBBI 201100Z 2012/2118 07010KT CAVOK
BECMG 2018/2020 VRB05KT
BECMG 2106/2108 08010KT

Example: see airport list